sensor_id;sensor_type;location;lat;lon;timestamp;P1;durP1;ratioP1;P2;durP2;ratioP2
22697;SDS011;11516;51.612;7.510;2023-04-06T00:00:42;17.67;;;12.67;;
22697;SDS011;11516;51.612;7.510;2023-04-06T00:03:08;16.38;;;12.98;;
22697;SDS011;11516;51.612;7.510;2023-04-06T00:05:33;16.57;;;12.97;;
22697;SDS011;11516;51.612;7.510;2023-04-06T00:07:59;15.63;;;13.02;;
22697;SDS011;11516;51.612;7.510;2023-04-06T00:10:25;16.30;;;12.07;;
22697;SDS011;11516;51.612;7.510;2023-04-06T00:12:51;16.35;;;13.30;;
22697;SDS011;11516;51.612;7.510;2023-04-06T00:15:17;18.08;;;12.98;;
22697;SDS011;11516;51.612;7.510;2023-04-06T00:17:42;16.42;;;12.18;;
22697;SDS011;11516;51.612;7.510;2023-04-06T00:20:08;16.47;;;12.20;;
22697;SDS011;11516;51.612;7.510;2023-04-06T00:22:34;15.57;;;12.45;;
22697;SDS011;11516;51.612;7.510;2023-04-06T00:25:00;16.75;;;13.20;;
22697;SDS011;11516;51.612;7.510;2023-04-06T00:27:26;15.82;;;12.52;;
22697;SDS011;11516;51.612;7.510;2023-04-06T00:29:51;19.50;;;12.93;;
22697;SDS011;11516;51.612;7.510;2023-04-06T00:32:17;16.95;;;12.65;;
22697;SDS011;11516;51.612;7.510;2023-04-06T00:34:42;18.23;;;13.30;;
22697;SDS011;11516;51.612;7.510;2023-04-06T00:37:08;18.13;;;12.77;;
22697;SDS011;11516;51.612;7.510;2023-04-06T00:39:33;19.45;;;13.27;;
22697;SDS011;11516;51.612;7.510;2023-04-06T00:41:59;17.93;;;13.47;;
22697;SDS011;11516;51.612;7.510;2023-04-06T00:44:25;17.00;;;12.43;;
22697;SDS011;11516;51.612;7.510;2023-04-06T00:46:51;17.30;;;13.10;;
22697;SDS011;11516;51.612;7.510;2023-04-06T00:49:17;19.42;;;14.00;;
22697;SDS011;11516;51.612;7.510;2023-04-06T00:51:43;19.95;;;13.52;;
22697;SDS011;11516;51.612;7.510;2023-04-06T00:54:08;17.47;;;13.40;;
22697;SDS011;11516;51.612;7.510;2023-04-06T00:56:34;17.33;;;14.02;;
22697;SDS011;11516;51.612;7.510;2023-04-06T00:59:00;19.13;;;13.63;;
22697;SDS011;11516;51.612;7.510;2023-04-06T01:01:25;20.33;;;14.57;;
22697;SDS011;11516;51.612;7.510;2023-04-06T01:03:51;17.60;;;13.57;;
22697;SDS011;11516;51.612;7.510;2023-04-06T01:06:17;20.13;;;14.60;;
22697;SDS011;11516;51.612;7.510;2023-04-06T01:08:43;19.50;;;14.53;;
22697;SDS011;11516;51.612;7.510;2023-04-06T01:11:08;18.35;;;14.02;;
22697;SDS011;11516;51.612;7.510;2023-04-06T01:13:34;18.13;;;13.90;;
22697;SDS011;11516;51.612;7.510;2023-04-06T01:15:59;20.45;;;14.45;;
22697;SDS011;11516;51.612;7.510;2023-04-06T01:18:26;22.10;;;15.67;;
22697;SDS011;11516;51.612;7.510;2023-04-06T01:20:52;19.37;;;14.90;;
22697;SDS011;11516;51.612;7.510;2023-04-06T01:23:18;18.70;;;15.25;;
22697;SDS011;11516;51.612;7.510;2023-04-06T01:25:43;22.33;;;16.37;;
22697;SDS011;11516;51.612;7.510;2023-04-06T01:28:09;22.55;;;15.10;;
22697;SDS011;11516;51.612;7.510;2023-04-06T01:30:34;20.50;;;15.93;;
22697;SDS011;11516;51.612;7.510;2023-04-06T01:33:00;18.77;;;15.63;;
22697;SDS011;11516;51.612;7.510;2023-04-06T01:35:26;19.08;;;15.25;;
22697;SDS011;11516;51.612;7.510;2023-04-06T01:37:52;21.10;;;16.08;;
22697;SDS011;11516;51.612;7.510;2023-04-06T01:40:18;21.60;;;15.85;;
22697;SDS011;11516;51.612;7.510;2023-04-06T01:42:43;21.40;;;15.53;;
22697;SDS011;11516;51.612;7.510;2023-04-06T01:45:09;20.25;;;14.98;;
22697;SDS011;11516;51.612;7.510;2023-04-06T01:47:35;20.70;;;15.60;;
22697;SDS011;11516;51.612;7.510;2023-04-06T01:50:00;21.30;;;15.60;;
22697;SDS011;11516;51.612;7.510;2023-04-06T01:52:27;20.20;;;15.02;;
22697;SDS011;11516;51.612;7.510;2023-04-06T01:54:53;23.57;;;15.60;;
22697;SDS011;11516;51.612;7.510;2023-04-06T01:57:19;20.60;;;15.73;;
22697;SDS011;11516;51.612;7.510;2023-04-06T01:59:45;21.73;;;15.40;;
22697;SDS011;11516;51.612;7.510;2023-04-06T02:02:10;20.30;;;15.65;;
22697;SDS011;11516;51.612;7.510;2023-04-06T02:04:37;21.85;;;16.08;;
22697;SDS011;11516;51.612;7.510;2023-04-06T02:07:03;21.52;;;16.90;;
22697;SDS011;11516;51.612;7.510;2023-04-06T02:09:29;22.70;;;16.77;;
22697;SDS011;11516;51.612;7.510;2023-04-06T02:11:54;20.80;;;16.37;;
22697;SDS011;11516;51.612;7.510;2023-04-06T02:14:20;23.52;;;16.90;;
22697;SDS011;11516;51.612;7.510;2023-04-06T02:16:46;20.85;;;15.90;;
22697;SDS011;11516;51.612;7.510;2023-04-06T02:19:11;22.00;;;16.40;;
22697;SDS011;11516;51.612;7.510;2023-04-06T02:21:37;22.00;;;16.53;;
22697;SDS011;11516;51.612;7.510;2023-04-06T02:24:03;22.63;;;17.55;;
22697;SDS011;11516;51.612;7.510;2023-04-06T02:26:28;22.55;;;17.13;;
22697;SDS011;11516;51.612;7.510;2023-04-06T02:28:54;20.33;;;16.33;;
22697;SDS011;11516;51.612;7.510;2023-04-06T02:31:20;20.92;;;15.90;;
22697;SDS011;11516;51.612;7.510;2023-04-06T02:33:45;21.23;;;16.30;;
22697;SDS011;11516;51.612;7.510;2023-04-06T02:36:11;20.25;;;16.17;;
22697;SDS011;11516;51.612;7.510;2023-04-06T02:38:36;20.97;;;16.10;;
22697;SDS011;11516;51.612;7.510;2023-04-06T02:41:02;20.27;;;16.05;;
22697;SDS011;11516;51.612;7.510;2023-04-06T02:43:27;20.13;;;15.77;;
22697;SDS011;11516;51.612;7.510;2023-04-06T02:45:53;21.15;;;16.50;;
22697;SDS011;11516;51.612;7.510;2023-04-06T02:48:18;21.37;;;16.23;;
22697;SDS011;11516;51.612;7.510;2023-04-06T02:50:44;22.80;;;16.95;;
22697;SDS011;11516;51.612;7.510;2023-04-06T02:53:10;22.47;;;15.97;;
22697;SDS011;11516;51.612;7.510;2023-04-06T02:55:35;20.45;;;15.63;;
22697;SDS011;11516;51.612;7.510;2023-04-06T02:58:01;22.07;;;16.47;;
22697;SDS011;11516;51.612;7.510;2023-04-06T03:00:26;23.27;;;16.70;;
22697;SDS011;11516;51.612;7.510;2023-04-06T03:02:52;21.13;;;16.77;;
22697;SDS011;11516;51.612;7.510;2023-04-06T03:05:17;26.20;;;16.60;;
22697;SDS011;11516;51.612;7.510;2023-04-06T03:07:43;21.43;;;15.83;;
22697;SDS011;11516;51.612;7.510;2023-04-06T03:10:08;20.57;;;15.80;;
22697;SDS011;11516;51.612;7.510;2023-04-06T03:12:34;21.35;;;16.60;;
22697;SDS011;11516;51.612;7.510;2023-04-06T03:15:00;23.50;;;17.00;;
22697;SDS011;11516;51.612;7.510;2023-04-06T03:17:26;20.13;;;16.20;;
22697;SDS011;11516;51.612;7.510;2023-04-06T03:19:51;23.77;;;16.93;;
22697;SDS011;11516;51.612;7.510;2023-04-06T03:22:17;23.50;;;17.17;;
22697;SDS011;11516;51.612;7.510;2023-04-06T03:24:42;22.03;;;17.00;;
22697;SDS011;11516;51.612;7.510;2023-04-06T03:27:08;23.13;;;16.88;;
22697;SDS011;11516;51.612;7.510;2023-04-06T03:29:34;24.17;;;16.95;;
22697;SDS011;11516;51.612;7.510;2023-04-06T03:32:00;24.08;;;17.25;;
22697;SDS011;11516;51.612;7.510;2023-04-06T03:34:26;23.42;;;16.90;;
22697;SDS011;11516;51.612;7.510;2023-04-06T03:36:52;25.17;;;17.10;;
22697;SDS011;11516;51.612;7.510;2023-04-06T03:39:17;24.42;;;16.80;;
22697;SDS011;11516;51.612;7.510;2023-04-06T03:41:43;23.83;;;16.50;;
22697;SDS011;11516;51.612;7.510;2023-04-06T03:44:09;24.30;;;16.48;;
22697;SDS011;11516;51.612;7.510;2023-04-06T03:46:35;28.23;;;17.83;;
22697;SDS011;11516;51.612;7.510;2023-04-06T03:49:00;22.90;;;17.33;;
22697;SDS011;11516;51.612;7.510;2023-04-06T03:51:26;22.80;;;17.33;;
22697;SDS011;11516;51.612;7.510;2023-04-06T03:53:52;21.88;;;17.10;;
22697;SDS011;11516;51.612;7.510;2023-04-06T03:56:18;22.87;;;16.70;;
22697;SDS011;11516;51.612;7.510;2023-04-06T03:58:43;20.35;;;16.17;;
22697;SDS011;11516;51.612;7.510;2023-04-06T04:01:10;21.85;;;17.15;;
22697;SDS011;11516;51.612;7.510;2023-04-06T04:03:36;23.10;;;17.05;;
22697;SDS011;11516;51.612;7.510;2023-04-06T04:06:01;23.07;;;16.37;;
22697;SDS011;11516;51.612;7.510;2023-04-06T04:08:27;22.92;;;16.83;;
22697;SDS011;11516;51.612;7.510;2023-04-06T04:10:52;23.55;;;17.05;;
22697;SDS011;11516;51.612;7.510;2023-04-06T04:13:18;26.13;;;17.33;;
22697;SDS011;11516;51.612;7.510;2023-04-06T04:15:44;21.67;;;16.20;;
22697;SDS011;11516;51.612;7.510;2023-04-06T04:18:09;22.80;;;16.48;;
22697;SDS011;11516;51.612;7.510;2023-04-06T04:20:35;22.93;;;16.20;;
22697;SDS011;11516;51.612;7.510;2023-04-06T04:23:01;23.48;;;16.75;;
22697;SDS011;11516;51.612;7.510;2023-04-06T04:25:26;21.73;;;16.50;;
22697;SDS011;11516;51.612;7.510;2023-04-06T04:27:52;21.77;;;16.13;;
22697;SDS011;11516;51.612;7.510;2023-04-06T04:30:17;23.63;;;16.30;;
22697;SDS011;11516;51.612;7.510;2023-04-06T04:32:43;25.30;;;16.13;;
22697;SDS011;11516;51.612;7.510;2023-04-06T04:35:08;21.03;;;16.40;;
22697;SDS011;11516;51.612;7.510;2023-04-06T04:37:34;24.83;;;17.80;;
22697;SDS011;11516;51.612;7.510;2023-04-06T04:40:00;23.87;;;17.07;;
22697;SDS011;11516;51.612;7.510;2023-04-06T04:42:26;24.40;;;17.45;;
22697;SDS011;11516;51.612;7.510;2023-04-06T04:44:51;22.67;;;16.75;;
22697;SDS011;11516;51.612;7.510;2023-04-06T04:47:17;25.67;;;17.53;;
22697;SDS011;11516;51.612;7.510;2023-04-06T04:49:42;23.08;;;17.23;;
22697;SDS011;11516;51.612;7.510;2023-04-06T04:52:08;24.57;;;17.10;;
22697;SDS011;11516;51.612;7.510;2023-04-06T04:54:33;23.57;;;16.57;;
22697;SDS011;11516;51.612;7.510;2023-04-06T04:56:59;21.52;;;16.13;;
22697;SDS011;11516;51.612;7.510;2023-04-06T04:59:24;21.93;;;16.47;;
22697;SDS011;11516;51.612;7.510;2023-04-06T05:01:50;24.85;;;17.38;;
22697;SDS011;11516;51.612;7.510;2023-04-06T05:04:15;23.60;;;17.10;;
22697;SDS011;11516;51.612;7.510;2023-04-06T05:06:41;27.48;;;16.67;;
22697;SDS011;11516;51.612;7.510;2023-04-06T05:09:06;25.37;;;18.27;;
22697;SDS011;11516;51.612;7.510;2023-04-06T05:11:32;28.63;;;20.27;;
22697;SDS011;11516;51.612;7.510;2023-04-06T05:13:57;32.80;;;21.37;;
22697;SDS011;11516;51.612;7.510;2023-04-06T05:16:24;43.15;;;25.13;;
22697;SDS011;11516;51.612;7.510;2023-04-06T05:18:50;39.47;;;23.42;;
22697;SDS011;11516;51.612;7.510;2023-04-06T05:21:16;33.87;;;22.80;;
22697;SDS011;11516;51.612;7.510;2023-04-06T05:23:41;33.37;;;21.33;;
22697;SDS011;11516;51.612;7.510;2023-04-06T05:26:07;29.47;;;19.07;;
22697;SDS011;11516;51.612;7.510;2023-04-06T05:28:32;25.70;;;18.77;;
22697;SDS011;11516;51.612;7.510;2023-04-06T05:30:58;23.13;;;18.33;;
22697;SDS011;11516;51.612;7.510;2023-04-06T05:33:24;27.33;;;18.33;;
22697;SDS011;11516;51.612;7.510;2023-04-06T05:35:50;27.33;;;19.02;;
22697;SDS011;11516;51.612;7.510;2023-04-06T05:38:15;25.05;;;18.15;;
22697;SDS011;11516;51.612;7.510;2023-04-06T05:40:41;26.07;;;18.77;;
22697;SDS011;11516;51.612;7.510;2023-04-06T05:43:07;27.20;;;18.58;;
22697;SDS011;11516;51.612;7.510;2023-04-06T05:45:33;23.77;;;17.80;;
22697;SDS011;11516;51.612;7.510;2023-04-06T05:47:59;25.38;;;18.05;;
22697;SDS011;11516;51.612;7.510;2023-04-06T05:50:26;22.55;;;16.77;;
22697;SDS011;11516;51.612;7.510;2023-04-06T05:52:51;23.73;;;17.17;;
22697;SDS011;11516;51.612;7.510;2023-04-06T05:55:17;24.23;;;17.07;;
22697;SDS011;11516;51.612;7.510;2023-04-06T05:57:42;24.48;;;17.30;;
22697;SDS011;11516;51.612;7.510;2023-04-06T06:00:08;24.97;;;16.13;;
22697;SDS011;11516;51.612;7.510;2023-04-06T06:02:35;23.02;;;16.92;;
22697;SDS011;11516;51.612;7.510;2023-04-06T06:05:00;21.17;;;16.20;;
22697;SDS011;11516;51.612;7.510;2023-04-06T06:07:26;27.02;;;16.90;;
22697;SDS011;11516;51.612;7.510;2023-04-06T06:09:52;25.40;;;17.33;;
22697;SDS011;11516;51.612;7.510;2023-04-06T06:12:17;22.73;;;16.97;;
22697;SDS011;11516;51.612;7.510;2023-04-06T06:14:43;21.63;;;16.00;;
22697;SDS011;11516;51.612;7.510;2023-04-06T06:17:08;21.13;;;16.13;;
22697;SDS011;11516;51.612;7.510;2023-04-06T06:19:34;22.57;;;16.17;;
22697;SDS011;11516;51.612;7.510;2023-04-06T06:21:59;22.67;;;15.77;;
22697;SDS011;11516;51.612;7.510;2023-04-06T06:24:27;22.20;;;15.32;;
22697;SDS011;11516;51.612;7.510;2023-04-06T06:26:53;19.45;;;14.93;;
22697;SDS011;11516;51.612;7.510;2023-04-06T06:29:18;20.43;;;14.87;;
22697;SDS011;11516;51.612;7.510;2023-04-06T06:31:44;19.60;;;14.90;;
22697;SDS011;11516;51.612;7.510;2023-04-06T06:34:09;19.77;;;14.73;;
22697;SDS011;11516;51.612;7.510;2023-04-06T06:36:35;21.42;;;15.55;;
22697;SDS011;11516;51.612;7.510;2023-04-06T06:39:00;19.73;;;15.73;;
22697;SDS011;11516;51.612;7.510;2023-04-06T06:41:28;21.00;;;15.23;;
22697;SDS011;11516;51.612;7.510;2023-04-06T06:43:54;21.27;;;15.17;;
22697;SDS011;11516;51.612;7.510;2023-04-06T06:46:20;21.15;;;14.40;;
22697;SDS011;11516;51.612;7.510;2023-04-06T06:48:45;20.27;;;14.25;;
22697;SDS011;11516;51.612;7.510;2023-04-06T06:51:11;20.58;;;13.43;;
22697;SDS011;11516;51.612;7.510;2023-04-06T06:53:37;19.03;;;14.60;;
22697;SDS011;11516;51.612;7.510;2023-04-06T06:56:02;21.07;;;13.23;;
22697;SDS011;11516;51.612;7.510;2023-04-06T06:58:28;21.40;;;13.52;;
22697;SDS011;11516;51.612;7.510;2023-04-06T07:00:57;17.10;;;12.03;;
22697;SDS011;11516;51.612;7.510;2023-04-06T07:03:23;19.63;;;13.68;;
22697;SDS011;11516;51.612;7.510;2023-04-06T07:05:49;16.15;;;12.48;;
22697;SDS011;11516;51.612;7.510;2023-04-06T07:08:18;19.10;;;12.70;;
22697;SDS011;11516;51.612;7.510;2023-04-06T07:10:44;18.63;;;12.63;;
22697;SDS011;11516;51.612;7.510;2023-04-06T07:13:10;17.43;;;11.60;;
22697;SDS011;11516;51.612;7.510;2023-04-06T07:15:35;16.75;;;11.50;;
22697;SDS011;11516;51.612;7.510;2023-04-06T07:18:02;17.00;;;11.82;;
22697;SDS011;11516;51.612;7.510;2023-04-06T07:20:27;21.33;;;12.60;;
22697;SDS011;11516;51.612;7.510;2023-04-06T07:22:53;17.25;;;11.05;;
22697;SDS011;11516;51.612;7.510;2023-04-06T07:25:19;15.75;;;11.20;;
22697;SDS011;11516;51.612;7.510;2023-04-06T07:27:44;18.73;;;11.63;;
22697;SDS011;11516;51.612;7.510;2023-04-06T07:30:10;16.42;;;10.30;;
22697;SDS011;11516;51.612;7.510;2023-04-06T07:32:36;15.10;;;10.35;;
22697;SDS011;11516;51.612;7.510;2023-04-06T07:35:02;15.90;;;9.30;;
22697;SDS011;11516;51.612;7.510;2023-04-06T07:37:28;13.10;;;9.13;;
22697;SDS011;11516;51.612;7.510;2023-04-06T07:39:53;13.07;;;8.63;;
22697;SDS011;11516;51.612;7.510;2023-04-06T07:42:19;12.47;;;8.30;;
22697;SDS011;11516;51.612;7.510;2023-04-06T07:44:44;13.27;;;7.97;;
22697;SDS011;11516;51.612;7.510;2023-04-06T07:47:10;13.70;;;7.60;;
22697;SDS011;11516;51.612;7.510;2023-04-06T07:49:35;10.63;;;7.23;;
22697;SDS011;11516;51.612;7.510;2023-04-06T07:52:01;12.93;;;7.57;;
22697;SDS011;11516;51.612;7.510;2023-04-06T07:54:28;9.13;;;6.97;;
22697;SDS011;11516;51.612;7.510;2023-04-06T07:56:53;9.70;;;7.07;;
22697;SDS011;11516;51.612;7.510;2023-04-06T07:59:19;11.48;;;7.13;;
22697;SDS011;11516;51.612;7.510;2023-04-06T08:01:45;11.33;;;7.23;;
22697;SDS011;11516;51.612;7.510;2023-04-06T08:04:10;13.52;;;8.00;;
22697;SDS011;11516;51.612;7.510;2023-04-06T08:06:36;9.53;;;6.73;;
22697;SDS011;11516;51.612;7.510;2023-04-06T08:09:02;14.07;;;7.73;;
22697;SDS011;11516;51.612;7.510;2023-04-06T08:11:28;10.73;;;7.50;;
22697;SDS011;11516;51.612;7.510;2023-04-06T08:13:54;9.88;;;7.22;;
22697;SDS011;11516;51.612;7.510;2023-04-06T08:16:21;10.55;;;7.32;;
22697;SDS011;11516;51.612;7.510;2023-04-06T08:18:47;10.43;;;7.32;;
22697;SDS011;11516;51.612;7.510;2023-04-06T08:21:12;8.87;;;7.30;;
22697;SDS011;11516;51.612;7.510;2023-04-06T08:23:38;16.40;;;8.37;;
22697;SDS011;11516;51.612;7.510;2023-04-06T08:26:05;16.23;;;9.02;;
22697;SDS011;11516;51.612;7.510;2023-04-06T08:28:30;13.60;;;7.77;;
22697;SDS011;11516;51.612;7.510;2023-04-06T08:30:56;12.38;;;9.07;;
22697;SDS011;11516;51.612;7.510;2023-04-06T08:33:21;13.93;;;8.30;;
22697;SDS011;11516;51.612;7.510;2023-04-06T08:35:47;14.57;;;8.90;;
22697;SDS011;11516;51.612;7.510;2023-04-06T08:38:12;13.00;;;8.77;;
22697;SDS011;11516;51.612;7.510;2023-04-06T08:40:38;12.33;;;8.77;;
22697;SDS011;11516;51.612;7.510;2023-04-06T08:43:06;16.37;;;8.73;;
22697;SDS011;11516;51.612;7.510;2023-04-06T08:45:34;12.48;;;8.27;;
22697;SDS011;11516;51.612;7.510;2023-04-06T08:48:00;12.80;;;9.00;;
22697;SDS011;11516;51.612;7.510;2023-04-06T08:50:29;15.18;;;8.80;;
22697;SDS011;11516;51.612;7.510;2023-04-06T08:52:56;12.52;;;8.95;;
22697;SDS011;11516;51.612;7.510;2023-04-06T08:55:22;13.30;;;8.37;;
22697;SDS011;11516;51.612;7.510;2023-04-06T08:57:47;12.27;;;8.52;;
22697;SDS011;11516;51.612;7.510;2023-04-06T09:00:14;12.82;;;9.43;;
22697;SDS011;11516;51.612;7.510;2023-04-06T09:02:41;15.05;;;9.63;;
22697;SDS011;11516;51.612;7.510;2023-04-06T09:05:09;14.67;;;9.17;;
22697;SDS011;11516;51.612;7.510;2023-04-06T09:07:35;15.50;;;9.77;;
22697;SDS011;11516;51.612;7.510;2023-04-06T09:10:02;16.00;;;10.88;;
22697;SDS011;11516;51.612;7.510;2023-04-06T09:12:29;14.45;;;9.95;;
22697;SDS011;11516;51.612;7.510;2023-04-06T09:14:57;14.77;;;9.98;;
22697;SDS011;11516;51.612;7.510;2023-04-06T09:17:27;16.92;;;11.05;;
22697;SDS011;11516;51.612;7.510;2023-04-06T09:19:53;14.13;;;10.85;;
22697;SDS011;11516;51.612;7.510;2023-04-06T09:22:20;15.45;;;11.48;;
22697;SDS011;11516;51.612;7.510;2023-04-06T09:24:47;16.87;;;10.97;;
22697;SDS011;11516;51.612;7.510;2023-04-06T09:27:15;13.88;;;10.75;;
22697;SDS011;11516;51.612;7.510;2023-04-06T09:29:41;15.05;;;10.88;;
22697;SDS011;11516;51.612;7.510;2023-04-06T09:32:08;16.35;;;11.80;;
22697;SDS011;11516;51.612;7.510;2023-04-06T09:34:40;16.20;;;11.98;;
22697;SDS011;11516;51.612;7.510;2023-04-06T09:37:15;14.80;;;11.88;;
22697;SDS011;11516;51.612;7.510;2023-04-06T09:39:41;17.25;;;12.18;;
22697;SDS011;11516;51.612;7.510;2023-04-06T09:42:06;18.37;;;13.20;;
22697;SDS011;11516;51.612;7.510;2023-04-06T09:44:32;16.35;;;12.70;;
22697;SDS011;11516;51.612;7.510;2023-04-06T09:46:58;16.60;;;12.27;;
22697;SDS011;11516;51.612;7.510;2023-04-06T09:49:24;14.10;;;11.67;;
22697;SDS011;11516;51.612;7.510;2023-04-06T09:51:57;16.70;;;11.75;;
22697;SDS011;11516;51.612;7.510;2023-04-06T09:54:26;15.52;;;12.13;;
22697;SDS011;11516;51.612;7.510;2023-04-06T09:56:58;15.48;;;12.20;;
22697;SDS011;11516;51.612;7.510;2023-04-06T10:05:09;18.47;;;11.37;;
22697;SDS011;11516;51.612;7.510;2023-04-06T10:07:41;16.75;;;11.32;;
22697;SDS011;11516;51.612;7.510;2023-04-06T10:10:07;18.50;;;11.82;;
22697;SDS011;11516;51.612;7.510;2023-04-06T10:12:34;14.45;;;10.95;;
22697;SDS011;11516;51.612;7.510;2023-04-06T10:15:02;16.40;;;11.50;;
22697;SDS011;11516;51.612;7.510;2023-04-06T10:17:28;15.15;;;10.90;;
22697;SDS011;11516;51.612;7.510;2023-04-06T10:19:59;15.40;;;11.03;;
22697;SDS011;11516;51.612;7.510;2023-04-06T10:22:36;15.32;;;11.60;;
22697;SDS011;11516;51.612;7.510;2023-04-06T10:25:31;15.70;;;10.60;;
22697;SDS011;11516;51.612;7.510;2023-04-06T10:28:01;16.13;;;10.55;;
22697;SDS011;11516;51.612;7.510;2023-04-06T10:30:30;15.73;;;10.43;;
22697;SDS011;11516;51.612;7.510;2023-04-06T10:32:57;12.98;;;9.43;;
22697;SDS011;11516;51.612;7.510;2023-04-06T10:35:22;14.53;;;10.27;;
22697;SDS011;11516;51.612;7.510;2023-04-06T10:37:52;14.07;;;10.05;;
22697;SDS011;11516;51.612;7.510;2023-04-06T10:40:25;16.90;;;11.05;;
22697;SDS011;11516;51.612;7.510;2023-04-06T10:42:52;15.07;;;11.20;;
22697;SDS011;11516;51.612;7.510;2023-04-06T10:45:19;16.00;;;11.80;;
22697;SDS011;11516;51.612;7.510;2023-04-06T10:47:49;17.52;;;12.05;;
22697;SDS011;11516;51.612;7.510;2023-04-06T10:50:17;16.70;;;12.77;;
22697;SDS011;11516;51.612;7.510;2023-04-06T10:52:45;17.95;;;12.65;;
22697;SDS011;11516;51.612;7.510;2023-04-06T10:55:15;21.08;;;12.10;;
22697;SDS011;11516;51.612;7.510;2023-04-06T10:57:41;16.80;;;12.60;;
22697;SDS011;11516;51.612;7.510;2023-04-06T11:00:07;19.77;;;13.33;;
22697;SDS011;11516;51.612;7.510;2023-04-06T11:02:34;16.30;;;12.70;;
22697;SDS011;11516;51.612;7.510;2023-04-06T11:05:01;19.40;;;12.77;;
22697;SDS011;11516;51.612;7.510;2023-04-06T11:07:27;17.77;;;13.07;;
22697;SDS011;11516;51.612;7.510;2023-04-06T11:09:54;18.92;;;13.63;;
22697;SDS011;11516;51.612;7.510;2023-04-06T11:12:24;17.70;;;13.05;;
22697;SDS011;11516;51.612;7.510;2023-04-06T11:14:52;17.38;;;12.65;;
22697;SDS011;11516;51.612;7.510;2023-04-06T11:17:26;19.48;;;13.10;;
22697;SDS011;11516;51.612;7.510;2023-04-06T11:19:53;16.90;;;12.07;;
22697;SDS011;11516;51.612;7.510;2023-04-06T11:22:19;15.57;;;11.70;;
22697;SDS011;11516;51.612;7.510;2023-04-06T11:24:44;16.27;;;12.27;;
22697;SDS011;11516;51.612;7.510;2023-04-06T11:27:10;22.50;;;12.23;;
22697;SDS011;11516;51.612;7.510;2023-04-06T11:29:36;16.88;;;11.40;;
22697;SDS011;11516;51.612;7.510;2023-04-06T11:32:03;12.80;;;10.38;;
22697;SDS011;11516;51.612;7.510;2023-04-06T11:34:32;14.85;;;11.30;;
22697;SDS011;11516;51.612;7.510;2023-04-06T11:37:01;15.63;;;12.50;;
22697;SDS011;11516;51.612;7.510;2023-04-06T11:39:31;17.45;;;12.55;;
22697;SDS011;11516;51.612;7.510;2023-04-06T11:42:02;20.45;;;13.25;;
22697;SDS011;11516;51.612;7.510;2023-04-06T11:44:32;16.63;;;13.38;;
22697;SDS011;11516;51.612;7.510;2023-04-06T11:47:02;16.83;;;12.48;;
22697;SDS011;11516;51.612;7.510;2023-04-06T11:49:29;16.07;;;13.03;;
22697;SDS011;11516;51.612;7.510;2023-04-06T11:51:55;16.95;;;12.98;;
22697;SDS011;11516;51.612;7.510;2023-04-06T11:54:31;16.92;;;13.27;;
22697;SDS011;11516;51.612;7.510;2023-04-06T11:57:02;15.98;;;12.10;;
22697;SDS011;11516;51.612;7.510;2023-04-06T11:59:28;21.52;;;13.25;;
22697;SDS011;11516;51.612;7.510;2023-04-06T12:01:54;18.70;;;13.77;;
22697;SDS011;11516;51.612;7.510;2023-04-06T12:04:20;16.30;;;12.93;;
22697;SDS011;11516;51.612;7.510;2023-04-06T12:06:47;15.40;;;12.60;;
22697;SDS011;11516;51.612;7.510;2023-04-06T12:09:13;18.27;;;12.93;;
22697;SDS011;11516;51.612;7.510;2023-04-06T12:11:38;18.58;;;13.73;;
22697;SDS011;11516;51.612;7.510;2023-04-06T12:14:05;18.02;;;14.10;;
22697;SDS011;11516;51.612;7.510;2023-04-06T12:16:32;18.02;;;13.77;;
22697;SDS011;11516;51.612;7.510;2023-04-06T12:18:58;17.73;;;14.07;;
22697;SDS011;11516;51.612;7.510;2023-04-06T12:21:24;18.95;;;13.82;;
22697;SDS011;11516;51.612;7.510;2023-04-06T12:23:51;20.90;;;16.08;;
22697;SDS011;11516;51.612;7.510;2023-04-06T12:26:17;18.37;;;14.03;;
22697;SDS011;11516;51.612;7.510;2023-04-06T12:28:42;40.70;;;26.90;;
22697;SDS011;11516;51.612;7.510;2023-04-06T12:31:14;22.20;;;16.50;;
22697;SDS011;11516;51.612;7.510;2023-04-06T12:33:43;19.40;;;14.95;;
22697;SDS011;11516;51.612;7.510;2023-04-06T12:36:12;18.83;;;14.20;;
22697;SDS011;11516;51.612;7.510;2023-04-06T12:38:38;18.55;;;14.52;;
22697;SDS011;11516;51.612;7.510;2023-04-06T12:41:05;18.43;;;14.70;;
22697;SDS011;11516;51.612;7.510;2023-04-06T12:43:31;18.27;;;14.75;;
22697;SDS011;11516;51.612;7.510;2023-04-06T12:45:57;19.48;;;14.75;;
22697;SDS011;11516;51.612;7.510;2023-04-06T12:48:22;20.83;;;15.15;;
22697;SDS011;11516;51.612;7.510;2023-04-06T12:50:57;17.27;;;14.85;;
22697;SDS011;11516;51.612;7.510;2023-04-06T12:53:25;18.85;;;15.45;;
22697;SDS011;11516;51.612;7.510;2023-04-06T12:55:53;19.50;;;15.27;;
22697;SDS011;11516;51.612;7.510;2023-04-06T12:58:19;19.07;;;15.20;;
22697;SDS011;11516;51.612;7.510;2023-04-06T13:00:46;50.63;;;33.40;;
22697;SDS011;11516;51.612;7.510;2023-04-06T13:03:12;38.28;;;24.02;;
22697;SDS011;11516;51.612;7.510;2023-04-06T13:05:46;50.53;;;31.00;;
22697;SDS011;11516;51.612;7.510;2023-04-06T13:08:13;94.05;;;53.28;;
22697;SDS011;11516;51.612;7.510;2023-04-06T13:10:43;30.98;;;21.25;;
22697;SDS011;11516;51.612;7.510;2023-04-06T13:13:13;25.08;;;18.02;;
22697;SDS011;11516;51.612;7.510;2023-04-06T13:15:40;54.97;;;33.13;;
22697;SDS011;11516;51.612;7.510;2023-04-06T13:18:06;52.15;;;32.70;;
22697;SDS011;11516;51.612;7.510;2023-04-06T13:20:32;19.50;;;13.85;;
22697;SDS011;11516;51.612;7.510;2023-04-06T13:22:57;15.20;;;11.87;;
22697;SDS011;11516;51.612;7.510;2023-04-06T13:25:23;16.70;;;12.27;;
22697;SDS011;11516;51.612;7.510;2023-04-06T13:27:48;17.20;;;12.10;;
22697;SDS011;11516;51.612;7.510;2023-04-06T13:30:14;70.90;;;40.83;;
22697;SDS011;11516;51.612;7.510;2023-04-06T13:32:40;16.27;;;11.93;;
22697;SDS011;11516;51.612;7.510;2023-04-06T13:35:06;16.10;;;12.40;;
22697;SDS011;11516;51.612;7.510;2023-04-06T13:37:33;18.77;;;13.93;;
22697;SDS011;11516;51.612;7.510;2023-04-06T13:39:59;17.52;;;13.10;;
22697;SDS011;11516;51.612;7.510;2023-04-06T13:42:25;15.77;;;12.43;;
22697;SDS011;11516;51.612;7.510;2023-04-06T13:44:51;15.20;;;11.93;;
22697;SDS011;11516;51.612;7.510;2023-04-06T13:47:18;17.58;;;11.85;;
22697;SDS011;11516;51.612;7.510;2023-04-06T13:49:44;14.77;;;11.15;;
22697;SDS011;11516;51.612;7.510;2023-04-06T13:52:10;15.50;;;11.55;;
22697;SDS011;11516;51.612;7.510;2023-04-06T13:54:35;14.73;;;11.00;;
22697;SDS011;11516;51.612;7.510;2023-04-06T13:57:01;15.90;;;11.55;;
22697;SDS011;11516;51.612;7.510;2023-04-06T13:59:36;14.40;;;11.25;;
22697;SDS011;11516;51.612;7.510;2023-04-06T14:02:02;15.07;;;11.47;;
22697;SDS011;11516;51.612;7.510;2023-04-06T14:04:29;15.00;;;10.82;;
22697;SDS011;11516;51.612;7.510;2023-04-06T14:06:55;14.93;;;11.00;;
22697;SDS011;11516;51.612;7.510;2023-04-06T14:09:21;17.10;;;12.20;;
22697;SDS011;11516;51.612;7.510;2023-04-06T14:11:47;16.23;;;11.47;;
22697;SDS011;11516;51.612;7.510;2023-04-06T14:14:12;15.83;;;11.70;;
22697;SDS011;11516;51.612;7.510;2023-04-06T14:16:38;15.80;;;11.33;;
22697;SDS011;11516;51.612;7.510;2023-04-06T14:19:03;17.23;;;11.70;;
22697;SDS011;11516;51.612;7.510;2023-04-06T14:21:29;16.50;;;11.63;;
22697;SDS011;11516;51.612;7.510;2023-04-06T14:23:54;14.68;;;11.02;;